Terminal Aerodrome Forecast
Issued by NWS Portland, OR

Home | Current Version | Previous Version | Text Only | Print | Product List | Glossary On
Versions: 1 2 3 4 5 6 7 8 9 10 11 12 13 14 15 16 17 18 19 20
000
FTUS46 KPQR 222340
TAFSLE
TAF
KSLE 222340Z 2300/2324 VRB03KT P6SM SCT050 OVC070
     FM230300 18006KT P6SM -RA SCT025 OVC040
     FM230600 18008KT 6SM -RADZ BKN025 OVC040
     FM231200 20012KT 4SM -RADZ BR BKN015 OVC030
     FM232000 22008KT 6SM -RA BR SCT015 OVC025=

USA.gov is the U.S. government's official web portal to all federal, state and local government web resources and services.